Time;durP1;ratioP1;P1;durP2;ratioP2;P2;SDS_P1;SDS_P2;PMS_P1;PMS_P2;Temp;Humidity;BMP_temperature;BMP_pressure;BME280_temperature;BME280_humidity;BME280_pressure;Samples;Min_cycle;Max_cycle;Signal;HPM_P1;HPM_P2
2020/12/04 00:00:16;;;;;;;1.70;0.20;;;4.70;99.90;;;;;;5012210;28;20202;-64
2020/12/04 00:02:41;;;;;;;1.80;0.47;;;4.60;99.90;;;;;;5008947;28;20297;-63
2020/12/04 00:05:07;;;;;;;2.00;0.93;;;4.60;99.90;;;;;;5011793;28;20217;-64
2020/12/04 00:07:33;;;;;;;1.75;0.30;;;4.50;99.90;;;;;;5010523;28;20256;-64
2020/12/04 00:09:59;;;;;;;1.70;0.20;;;4.40;99.90;;;;;;5010926;28;20198;-64
2020/12/04 00:12:24;;;;;;;1.70;0.20;;;4.40;99.90;;;;;;5010164;28;20745;-64
2020/12/04 00:14:50;;;;;;;1.70;0.20;;;4.40;99.90;;;;;;5012147;28;20677;-64
2020/12/04 00:17:16;;;;;;;1.70;0.20;;;4.30;99.90;;;;;;5011636;28;20239;-64
2020/12/04 00:19:42;;;;;;;1.70;0.20;;;4.20;99.90;;;;;;5014186;28;20642;-64
2020/12/04 00:22:08;;;;;;;1.70;0.20;;;4.20;99.90;;;;;;5013133;28;20191;-64
2020/12/04 00:24:34;;;;;;;1.70;0.30;;;4.20;99.90;;;;;;5015171;28;20503;-64
2020/12/04 00:26:59;;;;;;;1.73;0.30;;;4.20;99.90;;;;;;5014059;28;20226;-64
2020/12/04 00:29:29;;;;;;;1.70;0.20;;;4.20;99.90;;;;;;5014896;28;20201;-64
2020/12/04 00:31:55;;;;;;;1.70;0.20;;;4.10;99.90;;;;;;5013789;28;20423;-63
2020/12/04 00:34:21;;;;;;;1.70;0.20;;;4.10;99.90;;;;;;5014796;28;20191;-63
2020/12/04 00:36:48;;;;;;;1.70;0.20;;;4.20;99.90;;;;;;5012905;28;20265;-64
2020/12/04 00:39:15;;;;;;;1.70;0.20;;;4.20;99.90;;;;;;5014437;28;20183;-64
2020/12/04 00:41:41;;;;;;;1.70;0.20;;;4.20;99.90;;;;;;5014748;28;20183;-64
2020/12/04 00:44:06;;;;;;;1.70;0.20;;;4.20;99.90;;;;;;5016574;28;20229;-64
2020/12/04 00:46:32;;;;;;;1.70;0.20;;;4.20;99.90;;;;;;5015346;28;20534;-64
2020/12/04 00:48:57;;;;;;;1.70;0.20;;;4.20;99.90;;;;;;5016396;28;20179;-64
2020/12/04 00:51:23;;;;;;;1.70;0.20;;;4.20;99.90;;;;;;5014609;28;20720;-64
2020/12/04 00:53:50;;;;;;;1.70;0.20;;;4.20;99.90;;;;;;5014323;28;20237;-64
2020/12/04 00:56:16;;;;;;;1.70;0.20;;;4.20;99.90;;;;;;5014016;28;20191;-64
2020/12/04 00:58:44;;;;;;;1.70;0.20;;;4.20;99.90;;;;;;5013823;28;20655;-64
2020/12/04 01:01:10;;;;;;;1.70;0.20;;;4.10;99.90;;;;;;5014817;28;20191;-64
2020/12/04 01:03:35;;;;;;;1.70;0.20;;;4.10;99.90;;;;;;5013448;28;20210;-64
2020/12/04 01:06:00;;;;;;;1.73;0.20;;;4.10;99.90;;;;;;5012378;28;20258;-64
2020/12/04 01:08:26;;;;;;;1.80;0.20;;;4.10;99.90;;;;;;5013330;28;20270;-65
2020/12/04 01:10:52;;;;;;;1.70;0.20;;;4.10;99.90;;;;;;5019021;28;20595;-64
2020/12/04 01:13:17;;;;;;;1.70;0.20;;;4.10;99.90;;;;;;5019062;28;20206;-64
2020/12/04 01:15:43;;;;;;;1.70;0.20;;;4.20;99.90;;;;;;5013474;28;20179;-65
2020/12/04 01:18:08;;;;;;;1.70;0.20;;;4.10;99.90;;;;;;5012790;28;20193;-65
2020/12/04 01:20:34;;;;;;;1.70;0.20;;;4.10;99.90;;;;;;5013278;28;20183;-65
2020/12/04 01:23:00;;;;;;;1.70;0.20;;;4.10;99.90;;;;;;5013411;28;20268;-64
2020/12/04 01:25:25;;;;;;;1.70;0.20;;;4.10;99.90;;;;;;5012180;28;20669;-64
2020/12/04 01:27:51;;;;;;;1.70;0.20;;;4.10;99.90;;;;;;5014110;28;20207;-65
2020/12/04 01:30:16;;;;;;;1.70;0.20;;;4.10;99.90;;;;;;5011704;28;20186;-64
2020/12/04 01:32:42;;;;;;;1.70;0.20;;;4.20;99.90;;;;;;5014048;28;20211;-64
2020/12/04 01:35:07;;;;;;;2.60;1.50;;;4.30;99.90;;;;;;5023254;28;20179;-65
2020/12/04 01:37:33;;;;;;;1.70;0.20;;;4.30;99.90;;;;;;5028999;28;20206;-65
2020/12/04 01:39:58;;;;;;;1.70;0.20;;;4.30;99.90;;;;;;5028318;28;20186;-64
2020/12/04 01:42:24;;;;;;;2.10;0.60;;;4.30;99.90;;;;;;5028909;28;20206;-65
2020/12/04 01:44:49;;;;;;;1.70;0.20;;;4.20;99.90;;;;;;5023154;28;20273;-65
2020/12/04 01:47:17;;;;;;;1.90;0.73;;;4.20;99.90;;;;;;5028328;28;20569;-64
2020/12/04 01:49:43;;;;;;;1.70;0.20;;;4.20;99.90;;;;;;5014936;28;20217;-65
2020/12/04 01:52:09;;;;;;;1.70;0.20;;;4.20;99.90;;;;;;5014294;28;20209;-64
2020/12/04 01:54:34;;;;;;;1.70;0.20;;;4.20;99.90;;;;;;5013974;28;20501;-65
2020/12/04 01:57:01;;;;;;;1.80;0.40;;;4.30;99.90;;;;;;5012046;28;20657;-66
2020/12/04 01:59:27;;;;;;;1.70;0.20;;;4.20;99.90;;;;;;5014167;28;20189;-65
2020/12/04 02:02:06;;;;;;;1.70;0.20;;;4.20;99.90;;;;;;5013386;28;20186;-65
2020/12/04 02:04:31;;;;;;;1.70;0.20;;;4.20;99.90;;;;;;5020531;28;20554;-64
2020/12/04 02:07:07;;;;;;;1.73;0.20;;;4.20;99.90;;;;;;5013994;28;20281;-64
2020/12/04 02:09:39;;;;;;;1.70;0.20;;;4.20;99.90;;;;;;5015801;28;20189;-64
2020/12/04 02:12:07;;;;;;;1.70;0.20;;;4.30;99.90;;;;;;5013023;28;20254;-65
2020/12/04 02:14:33;;;;;;;1.70;0.20;;;4.30;99.90;;;;;;5012629;28;20202;-64
2020/12/04 02:17:00;;;;;;;2.33;2.05;;;4.30;99.90;;;;;;5005808;28;20193;-64
2020/12/04 02:19:26;;;;;;;1.70;0.20;;;4.40;99.90;;;;;;5010117;28;20557;-68
2020/12/04 02:21:51;;;;;;;1.70;0.20;;;4.40;99.90;;;;;;5014448;28;20191;-65
2020/12/04 02:24:25;;;;;;;1.70;0.20;;;4.40;99.90;;;;;;5013940;28;20245;-64
2020/12/04 02:26:51;;;;;;;1.70;0.20;;;4.40;99.90;;;;;;5012904;28;20226;-64
2020/12/04 02:29:16;;;;;;;1.70;0.20;;;4.50;99.90;;;;;;5012618;28;20179;-65
2020/12/04 02:31:42;;;;;;;1.70;0.20;;;4.50;99.90;;;;;;5012301;28;20707;-65
2020/12/04 02:34:07;;;;;;;1.80;0.40;;;4.50;99.90;;;;;;5012729;28;20211;-65
2020/12/04 02:36:33;;;;;;;1.70;0.20;;;4.60;99.90;;;;;;5011691;28;20705;-65
2020/12/04 02:38:58;;;;;;;1.70;0.20;;;4.60;99.90;;;;;;5011584;28;20187;-64
2020/12/04 02:41:24;;;;;;;1.70;0.20;;;4.70;99.90;;;;;;5010665;28;20251;-65
2020/12/04 02:43:49;;;;;;;1.80;0.20;;;4.70;99.90;;;;;;5013279;28;20214;-65
2020/12/04 02:46:15;;;;;;;1.70;0.20;;;4.80;99.90;;;;;;5009544;28;20214;-65
2020/12/04 02:48:40;;;;;;;1.70;0.37;;;4.80;99.90;;;;;;5005594;28;20187;-65
2020/12/04 02:51:07;;;;;;;2.10;0.77;;;4.80;99.90;;;;;;5005126;28;20195;-65
2020/12/04 02:53:32;;;;;;;1.70;0.20;;;4.80;99.90;;;;;;5013309;28;20207;-65
2020/12/04 02:55:58;;;;;;;1.70;0.20;;;4.90;99.90;;;;;;5011284;28;20186;-65
2020/12/04 02:58:23;;;;;;;1.90;0.63;;;4.90;99.90;;;;;;5013603;28;20186;-65
2020/12/04 03:00:49;;;;;;;1.70;0.20;;;4.90;99.90;;;;;;5011888;28;20628;-65
2020/12/04 03:03:14;;;;;;;1.70;0.20;;;5.00;99.90;;;;;;5012257;28;20198;-64
2020/12/04 03:05:40;;;;;;;1.70;0.20;;;5.00;99.90;;;;;;5005780;28;20207;-65
2020/12/04 03:08:05;;;;;;;1.70;0.20;;;5.00;99.90;;;;;;5011372;28;20210;-64
2020/12/04 03:10:30;;;;;;;1.70;0.20;;;5.00;99.90;;;;;;5014835;28;20202;-64
2020/12/04 03:12:56;;;;;;;1.73;0.30;;;5.10;99.90;;;;;;5014309;28;20210;-64
2020/12/04 03:15:21;;;;;;;1.70;0.20;;;5.10;99.90;;;;;;5010953;28;20281;-63
2020/12/04 03:17:47;;;;;;;1.70;0.20;;;5.10;99.90;;;;;;5009909;28;20194;-65
2020/12/04 03:20:13;;;;;;;1.70;0.20;;;5.10;99.90;;;;;;5012624;28;20175;-65
2020/12/04 03:22:38;;;;;;;1.70;0.20;;;5.10;99.90;;;;;;5011687;28;20218;-65
2020/12/04 03:25:04;;;;;;;1.73;0.20;;;5.10;99.90;;;;;;5012388;28;20191;-65
2020/12/04 03:27:29;;;;;;;1.70;0.20;;;5.10;99.90;;;;;;5011305;28;20217;-65
2020/12/04 03:29:55;;;;;;;1.70;0.20;;;5.10;99.90;;;;;;5012021;28;20189;-65
2020/12/04 03:32:20;;;;;;;1.73;0.20;;;5.20;99.90;;;;;;5013068;28;20186;-64
2020/12/04 03:34:45;;;;;;;1.70;0.20;;;5.30;99.90;;;;;;5011850;28;20197;-65
2020/12/04 03:37:11;;;;;;;1.70;0.20;;;5.50;99.90;;;;;;5013802;28;20191;-65
2020/12/04 03:39:37;;;;;;;2.30;0.43;;;5.80;99.90;;;;;;5017306;28;20202;-65
2020/12/04 03:42:03;;;;;;;1.70;0.20;;;6.00;99.90;;;;;;5029923;28;20221;-64
2020/12/04 03:44:28;;;;;;;1.70;0.20;;;6.10;99.90;;;;;;5012713;28;20213;-65
2020/12/04 03:46:54;;;;;;;1.70;0.20;;;6.20;99.90;;;;;;5013156;28;20461;-65
2020/12/04 03:49:19;;;;;;;1.70;0.20;;;6.20;99.90;;;;;;5011527;28;20190;-64
2020/12/04 03:51:45;;;;;;;1.70;0.20;;;6.30;99.90;;;;;;5013786;28;20194;-64
2020/12/04 03:54:11;;;;;;;1.70;0.30;;;6.30;99.90;;;;;;5016237;28;20202;-65
2020/12/04 03:56:37;;;;;;;1.70;0.20;;;6.30;99.90;;;;;;5016351;28;20222;-65
2020/12/04 03:59:03;;;;;;;1.70;0.20;;;6.30;99.90;;;;;;5014689;28;20511;-65
2020/12/04 04:01:29;;;;;;;1.70;0.20;;;6.30;99.90;;;;;;5015516;28;20183;-65
2020/12/04 04:03:55;;;;;;;1.70;0.20;;;6.30;99.90;;;;;;5013782;28;20578;-64
2020/12/04 04:06:20;;;;;;;2.10;0.93;;;6.30;99.90;;;;;;5014094;28;20469;-65
2020/12/04 04:08:46;;;;;;;1.70;0.20;;;6.30;99.90;;;;;;5015070;28;20274;-64
2020/12/04 04:11:11;;;;;;;1.70;0.20;;;6.30;99.90;;;;;;5014607;28;20240;-65
2020/12/04 04:13:37;;;;;;;1.70;0.20;;;6.30;99.90;;;;;;5015003;28;20501;-64
2020/12/04 04:16:03;;;;;;;1.70;0.20;;;6.20;99.90;;;;;;5015223;28;20194;-64
2020/12/04 04:18:28;;;;;;;2.73;1.80;;;6.30;99.90;;;;;;5012904;28;20578;-64
2020/12/04 04:20:54;;;;;;;1.70;0.20;;;6.30;99.90;;;;;;5014385;28;20429;-65
2020/12/04 04:23:19;;;;;;;1.70;0.20;;;6.30;99.90;;;;;;5014169;28;20717;-65
2020/12/04 04:25:45;;;;;;;1.70;0.20;;;6.30;99.90;;;;;;5015382;28;20191;-65
2020/12/04 04:28:13;;;;;;;1.70;0.20;;;6.30;99.90;;;;;;5015252;28;20764;-65
2020/12/04 04:30:39;;;;;;;1.70;0.30;;;6.40;99.90;;;;;;5013956;28;20194;-64
2020/12/04 04:33:05;;;;;;;1.70;0.20;;;6.40;99.90;;;;;;5011363;28;20465;-64
2020/12/04 04:35:31;;;;;;;1.70;0.20;;;6.30;99.90;;;;;;5014922;28;20766;-64
2020/12/04 04:37:58;;;;;;;1.70;0.20;;;6.30;99.90;;;;;;5014391;28;20795;-65
2020/12/04 04:40:25;;;;;;;1.70;0.20;;;6.40;99.90;;;;;;5015228;28;20513;-64
2020/12/04 04:43:07;;;;;;;1.70;0.20;;;6.40;99.90;;;;;;5013361;28;20839;-65
2020/12/04 04:45:34;;;;;;;1.70;0.20;;;6.40;99.90;;;;;;5013839;28;20948;-65
2020/12/04 04:48:08;;;;;;;1.70;0.20;;;6.40;99.90;;;;;;5015230;28;20880;-64
2020/12/04 04:50:35;;;;;;;1.70;0.20;;;6.40;99.90;;;;;;5013578;28;20924;-64
2020/12/04 04:53:01;;;;;;;1.70;0.20;;;6.50;99.90;;;;;;5012410;28;20537;-65
2020/12/04 04:55:27;;;;;;;1.70;0.20;;;6.60;99.90;;;;;;5013302;28;20437;-64
2020/12/04 04:57:57;;;;;;;1.70;0.20;;;6.60;99.90;;;;;;5014540;28;20437;-65
2020/12/04 05:00:22;;;;;;;1.70;0.20;;;6.60;99.90;;;;;;5013244;28;20251;-65
2020/12/04 05:02:48;;;;;;;1.70;0.20;;;6.60;99.90;;;;;;5011363;28;21039;-64
2020/12/04 05:05:13;;;;;;;1.70;0.20;;;6.60;99.90;;;;;;5013923;28;20193;-64
2020/12/04 05:07:39;;;;;;;1.70;0.20;;;6.60;99.90;;;;;;5012557;28;20697;-64
2020/12/04 05:10:16;;;;;;;1.70;0.20;;;6.60;99.90;;;;;;5013966;28;20195;-65
2020/12/04 05:12:43;;;;;;;1.90;0.70;;;6.50;99.90;;;;;;5013181;28;20213;-64
2020/12/04 05:15:19;;;;;;;1.70;0.20;;;6.50;99.90;;;;;;5013162;28;20495;-64
2020/12/04 05:18:21;;;;;;;1.70;0.20;;;6.50;99.90;;;;;;5013477;28;20806;-65
2020/12/04 05:20:51;;;;;;;1.70;0.20;;;6.50;99.90;;;;;;5007041;28;20990;-64
2020/12/04 05:23:17;;;;;;;1.70;0.20;;;6.50;99.90;;;;;;5012764;28;20507;-65
2020/12/04 05:25:45;;;;;;;1.70;0.20;;;6.40;99.90;;;;;;5013622;28;20441;-65
2020/12/04 05:28:17;;;;;;;1.70;0.20;;;6.40;99.90;;;;;;5014019;28;20472;-64
2020/12/04 05:30:46;;;;;;;1.70;0.20;;;6.40;99.90;;;;;;5011226;28;20440;-65
2020/12/04 05:33:12;;;;;;;1.70;0.20;;;6.40;99.90;;;;;;5011934;28;20548;-65
2020/12/04 05:35:38;;;;;;;1.70;0.30;;;6.40;99.90;;;;;;5013060;28;20437;-65
2020/12/04 05:38:24;;;;;;;1.70;0.20;;;6.40;99.90;;;;;;5011702;28;20445;-65
2020/12/04 05:40:52;;;;;;;1.70;0.20;;;6.40;99.90;;;;;;5013570;28;20451;-65
2020/12/04 05:43:38;;;;;;;1.90;0.77;;;6.30;99.90;;;;;;5012958;28;20504;-65
2020/12/04 05:46:21;;;;;;;1.70;0.20;;;6.30;99.90;;;;;;5011492;28;20940;-65
2020/12/04 05:49:07;;;;;;;1.70;0.20;;;6.40;99.90;;;;;;5014382;28;20438;-65
2020/12/04 05:51:37;;;;;;;1.70;0.20;;;6.40;99.90;;;;;;5013276;28;20437;-65
2020/12/04 05:54:05;;;;;;;1.70;0.20;;;6.40;99.90;;;;;;5011860;28;20461;-64
2020/12/04 05:56:32;;;;;;;1.70;0.20;;;6.40;99.90;;;;;;5011360;28;20460;-65
2020/12/04 05:59:01;;;;;;;1.70;0.20;;;6.40;99.90;;;;;;5013150;28;20469;-65
2020/12/04 06:01:26;;;;;;;1.70;0.20;;;6.40;99.90;;;;;;5005190;28;20446;-65
2020/12/04 06:03:53;;;;;;;1.70;0.20;;;6.40;99.90;;;;;;5012848;28;20472;-65
2020/12/04 06:06:32;;;;;;;1.70;0.20;;;6.50;99.90;;;;;;5011942;28;20257;-64
2020/12/04 06:09:05;;;;;;;1.70;0.20;;;6.40;99.90;;;;;;5013277;28;20495;-65
2020/12/04 06:11:34;;;;;;;1.70;0.20;;;6.40;99.90;;;;;;5012060;28;20473;-65
2020/12/04 06:14:00;;;;;;;1.70;0.20;;;6.50;99.90;;;;;;5006407;28;20488;-65
2020/12/04 06:16:26;;;;;;;1.70;0.20;;;6.50;99.90;;;;;;5013223;28;20466;-65
2020/12/04 06:18:51;;;;;;;1.70;0.20;;;6.50;99.90;;;;;;5012873;28;20953;-65
2020/12/04 06:21:43;;;;;;;1.70;0.20;;;6.50;99.90;;;;;;5012623;28;20445;-64
2020/12/04 06:24:09;;;;;;;1.80;0.20;;;6.50;99.90;;;;;;5010995;28;20293;-65
2020/12/04 06:26:49;;;;;;;1.70;0.20;;;6.40;99.90;;;;;;5011840;28;21027;-65
2020/12/04 06:29:15;;;;;;;1.70;0.20;;;6.50;99.90;;;;;;5016146;28;20677;-65
2020/12/04 06:31:40;;;;;;;1.70;0.20;;;6.40;99.90;;;;;;5015354;28;20441;-65
2020/12/04 06:34:21;;;;;;;1.70;0.20;;;6.40;99.90;;;;;;5013635;28;20204;-65
2020/12/04 06:36:48;;;;;;;1.70;0.20;;;6.30;99.90;;;;;;5011546;28;20191;-64
2020/12/04 06:39:29;;;;;;;1.70;0.20;;;6.30;99.90;;;;;;5012322;28;20448;-65
2020/12/04 06:41:54;;;;;;;1.70;0.20;;;6.30;99.90;;;;;;5012147;28;20433;-65
2020/12/04 06:44:22;;;;;;;1.70;0.20;;;6.30;99.90;;;;;;5013591;28;20491;-65
2020/12/04 06:46:49;;;;;;;1.70;0.20;;;6.30;99.90;;;;;;5010929;28;20206;-64
2020/12/04 06:49:23;;;;;;;1.70;0.20;;;6.30;99.90;;;;;;5010373;28;20449;-65
2020/12/04 06:51:58;;;;;;;1.70;0.20;;;6.40;99.90;;;;;;5011772;28;20996;-66
2020/12/04 06:54:25;;;;;;;1.70;0.20;;;6.30;99.90;;;;;;5012497;28;20456;-65
2020/12/04 06:56:51;;;;;;;1.70;0.20;;;6.30;99.90;;;;;;5012085;28;20910;-65
2020/12/04 06:59:33;;;;;;;1.80;0.47;;;6.30;99.90;;;;;;5012114;28;20473;-64
2020/12/04 07:02:11;;;;;;;1.70;0.20;;;6.20;99.90;;;;;;5010072;28;20629;-64
2020/12/04 07:04:40;;;;;;;1.70;0.20;;;6.30;99.90;;;;;;5010237;28;20441;-64
2020/12/04 07:07:08;;;;;;;1.70;0.20;;;6.20;99.90;;;;;;5011991;28;20487;-64
2020/12/04 07:09:34;;;;;;;1.70;0.20;;;6.20;99.90;;;;;;5011836;28;20452;-64
2020/12/04 07:12:01;;;;;;;1.70;0.20;;;6.20;99.90;;;;;;5012490;28;20452;-64
2020/12/04 07:14:27;;;;;;;1.70;0.20;;;6.20;99.90;;;;;;5010607;28;20477;-63
2020/12/04 07:16:54;;;;;;;1.70;0.20;;;6.20;99.90;;;;;;5011632;28;20998;-65
2020/12/04 07:19:20;;;;;;;1.70;0.20;;;6.20;99.90;;;;;;5021815;28;20786;-64
2020/12/04 07:21:45;;;;;;;1.70;0.20;;;6.20;99.90;;;;;;5024219;28;20448;-64
2020/12/04 07:24:11;;;;;;;1.70;0.20;;;6.20;99.90;;;;;;5025098;28;20969;-64
2020/12/04 07:26:38;;;;;;;1.70;0.20;;;6.20;99.90;;;;;;5025405;28;20823;-64
2020/12/04 07:29:05;;;;;;;1.70;0.20;;;6.20;99.90;;;;;;5022081;28;20258;-64
2020/12/04 07:31:30;;;;;;;1.70;0.20;;;6.20;99.90;;;;;;5017185;28;20481;-63
2020/12/04 07:34:00;;;;;;;1.70;0.20;;;6.20;99.90;;;;;;5016311;28;20457;-64
2020/12/04 07:36:27;;;;;;;1.70;0.20;;;6.20;99.90;;;;;;5012771;28;20202;-65
2020/12/04 07:38:58;;;;;;;1.70;0.20;;;6.20;99.90;;;;;;5016703;28;20442;-64
2020/12/04 07:41:35;;;;;;;1.70;0.20;;;6.20;99.90;;;;;;5016375;28;20441;-64
2020/12/04 07:44:06;;;;;;;1.70;0.20;;;6.20;99.90;;;;;;5017410;28;20890;-64
2020/12/04 07:46:33;;;;;;;1.70;0.20;;;6.30;99.90;;;;;;5012794;28;20519;-63
2020/12/04 07:49:10;;;;;;;1.70;0.20;;;6.30;99.90;;;;;;5016120;28;20469;-63
2020/12/04 07:51:37;;;;;;;1.70;0.20;;;6.30;99.90;;;;;;5012426;28;21118;-63
2020/12/04 07:54:05;;;;;;;1.70;0.20;;;6.40;99.90;;;;;;5016382;28;20522;-64
2020/12/04 07:56:33;;;;;;;1.70;0.20;;;6.30;99.90;;;;;;5014258;28;20845;-63
2020/12/04 07:59:04;;;;;;;1.70;0.20;;;6.40;99.90;;;;;;5014324;28;20452;-65
2020/12/04 08:01:31;;;;;;;1.70;0.20;;;6.40;99.90;;;;;;5010208;28;20468;-64
2020/12/04 08:03:57;;;;;;;1.70;0.20;;;6.40;99.90;;;;;;5015270;28;20559;-63
2020/12/04 08:06:24;;;;;;;1.70;0.20;;;6.40;99.90;;;;;;5014800;28;20532;-64
2020/12/04 08:09:17;;;;;;;1.80;0.50;;;6.40;99.90;;;;;;5015274;28;20927;-63
2020/12/04 08:11:56;;;;;;;1.70;0.20;;;6.40;99.90;;;;;;5014889;28;20449;-64
2020/12/04 08:14:27;;;;;;;1.70;0.20;;;6.40;99.90;;;;;;5015346;28;20468;-64
2020/12/04 08:16:57;;;;;;;1.70;0.20;;;6.40;99.90;;;;;;5011349;28;20464;-63
2020/12/04 08:19:30;;;;;;;1.70;0.30;;;6.40;99.90;;;;;;5014564;28;20471;-63
2020/12/04 08:21:57;;;;;;;1.70;0.20;;;6.40;99.90;;;;;;5016548;28;20453;-63
2020/12/04 08:24:50;;;;;;;1.70;0.20;;;6.40;99.90;;;;;;5017582;28;20465;-63
2020/12/04 08:27:17;;;;;;;1.70;0.20;;;6.50;99.90;;;;;;5007385;28;20477;-63
2020/12/04 08:30:00;;;;;;;1.70;0.20;;;6.50;99.90;;;;;;5016878;28;20445;-64
2020/12/04 08:32:26;;;;;;;1.70;0.20;;;6.50;99.90;;;;;;5014993;28;21003;-63
2020/12/04 08:35:05;;;;;;;1.70;0.20;;;6.50;99.90;;;;;;5014584;28;20457;-63
2020/12/04 08:37:30;;;;;;;1.70;0.20;;;6.50;99.90;;;;;;5015790;28;20460;-63
2020/12/04 08:39:56;;;;;;;1.70;0.20;;;6.60;99.90;;;;;;5016560;28;20459;-62
2020/12/04 08:42:32;;;;;;;1.70;0.20;;;6.60;99.90;;;;;;5017015;28;20194;-63
2020/12/04 08:45:00;;;;;;;1.70;0.20;;;6.60;99.90;;;;;;5020225;28;20186;-63
2020/12/04 08:47:45;;;;;;;1.70;0.20;;;6.60;99.90;;;;;;5019072;28;20551;-64
2020/12/04 08:50:19;;;;;;;1.70;0.20;;;6.70;99.90;;;;;;5011774;28;20848;-63
2020/12/04 08:52:53;;;;;;;1.70;0.20;;;6.70;99.90;;;;;;5016847;28;20532;-63
2020/12/04 08:55:19;;;;;;;1.70;0.20;;;6.70;99.90;;;;;;5018568;28;20528;-62
2020/12/04 08:57:47;;;;;;;1.70;0.20;;;6.70;99.90;;;;;;5015243;28;20449;-63
2020/12/04 09:00:18;;;;;;;1.70;0.20;;;6.70;99.90;;;;;;5014428;28;20473;-63
2020/12/04 09:02:44;;;;;;;1.70;0.20;;;6.70;99.90;;;;;;5000496;28;20483;-64
2020/12/04 09:05:15;;;;;;;1.70;0.20;;;6.80;99.90;;;;;;5013457;28;20955;-63
2020/12/04 09:07:41;;;;;;;1.70;0.20;;;6.80;99.90;;;;;;5021723;28;20469;-63
2020/12/04 09:10:09;;;;;;;1.70;0.20;;;6.90;99.90;;;;;;5013747;28;20480;-63
2020/12/04 09:12:35;;;;;;;1.70;0.20;;;6.90;99.90;;;;;;5028691;28;20462;-63
2020/12/04 09:15:02;;;;;;;1.70;0.20;;;6.90;99.90;;;;;;5015179;28;20480;-63
2020/12/04 09:17:28;;;;;;;1.70;0.20;;;6.90;99.90;;;;;;5013894;28;20444;-63
2020/12/04 09:19:54;;;;;;;1.70;0.20;;;6.90;99.90;;;;;;5012042;28;20437;-63
2020/12/04 09:22:20;;;;;;;1.70;0.20;;;7.00;99.90;;;;;;5014026;28;20455;-63
2020/12/04 09:24:45;;;;;;;1.70;0.20;;;7.10;99.90;;;;;;5013175;28;20538;-63
2020/12/04 09:27:11;;;;;;;1.70;0.20;;;7.10;99.90;;;;;;5013796;28;20261;-63
2020/12/04 09:29:37;;;;;;;1.70;0.20;;;7.20;99.90;;;;;;5013798;28;20230;-63
2020/12/04 09:32:07;;;;;;;1.70;0.20;;;7.20;99.90;;;;;;5013782;28;20182;-63
2020/12/04 09:34:32;;;;;;;1.70;0.20;;;7.30;99.90;;;;;;5013899;28;20443;-63
2020/12/04 09:37:18;;;;;;;1.70;0.20;;;7.30;99.90;;;;;;5013041;28;20445;-63
2020/12/04 09:39:45;;;;;;;1.70;0.20;;;7.30;99.90;;;;;;5012265;28;20672;-63
2020/12/04 09:42:15;;;;;;;1.70;0.20;;;7.20;99.90;;;;;;5009772;28;20446;-63
2020/12/04 09:44:42;;;;;;;1.70;0.20;;;7.20;99.90;;;;;;5008778;28;20532;-63
2020/12/04 09:47:08;;;;;;;1.70;0.20;;;7.30;99.90;;;;;;5008894;28;20470;-63
2020/12/04 09:49:34;;;;;;;1.70;0.20;;;7.30;99.90;;;;;;5010668;28;20444;-63
2020/12/04 09:51:59;;;;;;;1.70;0.20;;;7.30;99.90;;;;;;5005091;28;20441;-63
2020/12/04 09:54:30;;;;;;;1.70;0.20;;;7.40;99.90;;;;;;5010606;28;20454;-64
2020/12/04 09:56:56;;;;;;;1.70;0.20;;;7.40;99.90;;;;;;5011565;28;20179;-62
2020/12/04 09:59:23;;;;;;;1.70;0.20;;;7.40;99.90;;;;;;5012973;28;20430;-63
2020/12/04 10:01:49;;;;;;;1.70;0.20;;;7.40;99.90;;;;;;5017004;28;20445;-62
2020/12/04 10:04:16;;;;;;;1.70;0.20;;;7.50;99.90;;;;;;5015559;28;20445;-63
2020/12/04 10:06:41;;;;;;;1.70;0.20;;;7.50;99.90;;;;;;5015352;28;20514;-63
2020/12/04 10:09:07;;;;;;;1.70;0.20;;;7.50;99.90;;;;;;5016122;28;21187;-63
2020/12/04 10:11:32;;;;;;;1.70;0.20;;;7.60;99.90;;;;;;5016543;28;20661;-63
2020/12/04 10:13:58;;;;;;;1.70;0.20;;;7.60;99.90;;;;;;5015502;28;20221;-63
2020/12/04 10:16:24;;;;;;;1.70;0.20;;;7.60;99.90;;;;;;5016273;28;20672;-63
2020/12/04 10:18:49;;;;;;;1.70;0.20;;;7.60;99.90;;;;;;5016936;28;20194;-64
2020/12/04 10:21:15;;;;;;;1.70;0.20;;;7.60;99.90;;;;;;5015892;28;20545;-63
2020/12/04 10:23:40;;;;;;;1.70;0.20;;;7.70;99.90;;;;;;5017141;28;20808;-62
2020/12/04 10:26:06;;;;;;;1.70;0.20;;;7.70;99.90;;;;;;5016501;28;21023;-63
2020/12/04 10:28:32;;;;;;;1.70;0.20;;;7.80;99.90;;;;;;5014208;28;20205;-63
2020/12/04 10:31:01;;;;;;;1.70;0.20;;;7.80;99.90;;;;;;5013587;28;20186;-63
2020/12/04 10:33:26;;;;;;;1.70;0.20;;;7.80;99.90;;;;;;5004034;28;20501;-63
2020/12/04 10:35:52;;;;;;;1.70;0.20;;;7.80;99.90;;;;;;5012069;28;20445;-62
2020/12/04 10:38:17;;;;;;;1.70;0.20;;;7.90;99.90;;;;;;5015154;28;20191;-63
2020/12/04 10:40:43;;;;;;;1.70;0.30;;;7.90;99.90;;;;;;5014068;28;20216;-63
2020/12/04 10:43:08;;;;;;;1.70;0.20;;;7.90;99.90;;;;;;5016433;28;20275;-63
2020/12/04 10:45:34;;;;;;;1.80;0.30;;;7.90;99.90;;;;;;5008170;28;20182;-62
2020/12/04 10:47:59;;;;;;;1.70;0.20;;;7.90;99.90;;;;;;5010399;28;20218;-63
2020/12/04 10:50:25;;;;;;;1.70;0.20;;;7.90;99.90;;;;;;5003453;28;20251;-63
2020/12/04 10:52:50;;;;;;;1.70;0.20;;;7.90;99.90;;;;;;5013757;28;20256;-64
2020/12/04 10:55:16;;;;;;;1.70;0.20;;;7.90;99.90;;;;;;5011497;28;20191;-62
2020/12/04 10:57:43;;;;;;;1.70;0.20;;;7.90;99.90;;;;;;5012820;28;20190;-63
2020/12/04 11:00:08;;;;;;;1.70;0.20;;;7.90;99.90;;;;;;5012477;28;20233;-63
2020/12/04 11:02:36;;;;;;;1.80;0.37;;;7.80;99.90;;;;;;5011089;28;20872;-63
2020/12/04 11:07:46;;;;;;;1.70;0.20;;;7.70;99.90;;;;;;5013133;28;21029;-63
2020/12/04 11:10:12;;;;;;;1.73;0.30;;;7.60;99.90;;;;;;5012454;28;20433;-63
2020/12/04 11:12:37;;;;;;;12.93;0.70;;;7.50;99.90;;;;;;5011817;28;20280;-64
2020/12/04 11:15:04;;;;;;;1.70;0.20;;;7.50;99.90;;;;;;5013905;28;20699;-63
2020/12/04 11:17:29;;;;;;;3.67;1.37;;;7.50;99.90;;;;;;5012220;28;20281;-63
2020/12/04 11:19:55;;;;;;;1.70;0.20;;;7.50;99.90;;;;;;5014121;28;20929;-63
2020/12/04 11:22:20;;;;;;;1.70;0.20;;;7.50;99.90;;;;;;5014363;28;20186;-63
2020/12/04 11:24:46;;;;;;;1.73;0.30;;;7.50;99.90;;;;;;5012674;28;20716;-63
2020/12/04 11:27:12;;;;;;;1.73;0.27;;;7.40;99.90;;;;;;5013695;28;20858;-64
2020/12/04 11:29:39;;;;;;;1.70;0.20;;;7.50;99.90;;;;;;5012210;28;20192;-64
2020/12/04 11:32:04;;;;;;;1.70;0.20;;;7.50;99.90;;;;;;5009700;28;20444;-64
2020/12/04 11:34:30;;;;;;;1.70;0.20;;;7.50;99.90;;;;;;5011652;28;20465;-64
2020/12/04 11:36:55;;;;;;;2.83;0.67;;;7.50;99.90;;;;;;5009908;28;20197;-64
2020/12/04 11:39:21;;;;;;;1.70;0.20;;;7.60;99.90;;;;;;5010723;28;20309;-64
2020/12/04 11:41:48;;;;;;;1.80;0.40;;;7.60;99.90;;;;;;5010961;28;20282;-64
2020/12/04 11:44:14;;;;;;;2.87;0.70;;;7.60;99.90;;;;;;5011990;28;20225;-63
2020/12/04 11:46:40;;;;;;;1.70;0.20;;;7.60;99.90;;;;;;5011286;28;20468;-64
2020/12/04 11:49:05;;;;;;;1.70;0.20;;;7.60;99.90;;;;;;5011335;28;21815;-64
2020/12/04 11:51:31;;;;;;;1.70;0.20;;;7.70;99.90;;;;;;5013266;28;20197;-64
2020/12/04 11:53:56;;;;;;;1.70;0.20;;;7.70;99.90;;;;;;5011778;28;20211;-64
2020/12/04 11:56:22;;;;;;;1.70;0.20;;;7.70;99.90;;;;;;5013154;28;20186;-64
2020/12/04 11:58:47;;;;;;;1.70;0.20;;;7.80;99.90;;;;;;5010817;28;20221;-65
2020/12/04 12:01:13;;;;;;;1.70;0.20;;;7.80;99.90;;;;;;5011987;28;20183;-63
2020/12/04 12:03:39;;;;;;;1.70;0.20;;;7.80;99.90;;;;;;5003681;28;20196;-64
2020/12/04 12:06:04;;;;;;;1.70;0.20;;;7.80;99.90;;;;;;5012585;28;20257;-63
2020/12/04 12:08:30;;;;;;;1.70;0.20;;;7.80;99.90;;;;;;5012027;28;20610;-64
2020/12/04 12:10:56;;;;;;;1.70;0.20;;;7.80;99.90;;;;;;5015476;28;20194;-64
2020/12/04 12:13:22;;;;;;;1.70;0.20;;;7.80;99.90;;;;;;5011945;28;20198;-64
2020/12/04 12:15:48;;;;;;;1.70;0.20;;;7.90;99.90;;;;;;5005930;28;20727;-64
2020/12/04 12:18:13;;;;;;;2.40;0.80;;;7.90;99.90;;;;;;5014430;28;20445;-63
2020/12/04 12:20:39;;;;;;;1.70;0.20;;;7.90;99.90;;;;;;5015034;28;20209;-64
2020/12/04 12:23:04;;;;;;;1.70;0.20;;;7.80;99.90;;;;;;5017440;28;20210;-64
2020/12/04 12:25:30;;;;;;;1.70;0.20;;;7.90;99.90;;;;;;5015797;28;20190;-64
2020/12/04 12:27:56;;;;;;;1.70;0.20;;;7.90;99.90;;;;;;5017259;28;20210;-64
2020/12/04 12:30:21;;;;;;;1.70;0.20;;;7.90;99.90;;;;;;5014591;28;20183;-64
2020/12/04 12:32:47;;;;;;;1.70;0.20;;;7.90;99.90;;;;;;5012551;28;20460;-64
2020/12/04 12:35:12;;;;;;;1.70;0.20;;;8.00;99.90;;;;;;5014760;28;20191;-63
2020/12/04 12:37:44;;;;;;;1.70;0.20;;;8.00;99.90;;;;;;5009426;28;20183;-64
2020/12/04 12:40:12;;;;;;;1.70;0.20;;;8.00;99.90;;;;;;5012890;28;20190;-64
2020/12/04 12:42:38;;;;;;;1.70;0.20;;;8.00;99.90;;;;;;5008978;28;20974;-64
2020/12/04 12:45:04;;;;;;;1.70;0.20;;;8.00;99.90;;;;;;5014921;28;20472;-64
2020/12/04 12:47:30;;;;;;;1.70;0.20;;;8.00;99.90;;;;;;5013905;28;20489;-64
2020/12/04 12:49:56;;;;;;;1.70;0.20;;;8.00;99.90;;;;;;5012900;28;21176;-64
2020/12/04 12:52:22;;;;;;;1.70;0.20;;;8.00;99.90;;;;;;5008588;28;20192;-64
2020/12/04 12:54:47;;;;;;;1.70;0.20;;;8.00;99.90;;;;;;5014120;28;20204;-64
2020/12/04 12:57:13;;;;;;;17.63;16.23;;;8.00;99.90;;;;;;5013578;28;20194;-64
2020/12/04 12:59:38;;;;;;;1.70;0.20;;;8.10;99.90;;;;;;5013526;28;20198;-63
2020/12/04 13:02:04;;;;;;;1.70;0.20;;;8.10;99.90;;;;;;5012948;28;20689;-64